Terminal Aerodrome Forecast
Issued by NWS Blacksburg, VA

Current Version | Previous Version | Text Only | Print | Product List | Glossary Off
Versions: 1 2 3 4 5 6 7 8 9 10 11 12 13 14 15 16 17 18 19 20 21 22 23 24 25 26 27 28 29 30 31 32 33 34 35 36 37 38 39 40

569
FTUS41 KRNK 230236 AAB
TAFBLF
TAF AMD
KBLF 230236Z 2303/2324 00000KT 3/4SM -RA BR SCT015 OVC060
      TEMPO 2303/2306 4SM -SHRA OVC025
     FM230600 21009KT P6SM VCSH OVC025
     FM231200 23011KT P6SM OVC040
     FM232100 24014G23KT P6SM BKN090=

USA.gov is the U.S. government's official web portal to all federal, state and local government web resources and services.